Time;durP1;ratioP1;P1;durP2;ratioP2;P2;SDS_P1;SDS_P2;PMS_P1;PMS_P2;Temp;Humidity;BMP_temperature;BMP_pressure;BME280_temperature;BME280_humidity;BME280_pressure;Samples;Min_cycle;Max_cycle;Signal;HPM_P1;HPM_P2
2023/04/19 00:01:43;;;;;;;;;;;8.60;99.90;;;;;;5057275;28;19932;-45
2023/04/19 00:04:10;;;;;;;;;;;8.60;99.90;;;;;;5062054;28;20355;-44
2023/04/19 00:06:36;;;;;;;;;;;8.50;99.90;;;;;;5058148;28;19999;-43
2023/04/19 00:09:03;;;;;;;;;;;8.50;99.90;;;;;;5054143;28;19935;-41
2023/04/19 00:11:30;;;;;;;;;;;8.50;99.90;;;;;;5053332;28;20380;-41
2023/04/19 00:13:58;;;;;;;;;;;8.50;99.90;;;;;;5059016;28;19977;-41
2023/04/19 00:16:25;;;;;;;;;;;8.40;99.90;;;;;;5052689;28;20269;-44
2023/04/19 00:18:51;;;;;;;;;;;8.40;99.90;;;;;;5052607;28;19951;-45
2023/04/19 00:21:18;;;;;;;;;;;8.50;99.90;;;;;;5042722;28;19939;-41
2023/04/19 00:23:44;;;;;;;;;;;8.40;99.90;;;;;;5067771;28;19931;-42
2023/04/19 00:26:14;;;;;;;;;;;8.40;99.90;;;;;;5062720;28;19972;-44
2023/04/19 00:28:41;;;;;;;;;;;8.30;99.90;;;;;;5050464;28;19966;-41
2023/04/19 00:31:09;;;;;;;;;;;8.30;99.90;;;;;;5064989;28;20419;-42
2023/04/19 00:33:35;;;;;;;;;;;8.30;99.90;;;;;;5058271;28;20411;-44
2023/04/19 00:36:02;;;;;;;;;;;8.30;99.90;;;;;;5059511;28;20003;-41
2023/04/19 00:38:28;;;;;;;;;;;8.30;99.90;;;;;;5042586;28;20034;-42
2023/04/19 00:40:55;;;;;;;;;;;8.30;99.90;;;;;;5054220;28;20265;-45
2023/04/19 00:43:22;;;;;;;;;;;8.30;99.90;;;;;;5061457;28;19921;-46
2023/04/19 00:45:48;;;;;;;;;;;8.20;99.90;;;;;;5043039;28;19979;-45
2023/04/19 00:48:16;;;;;;;;;;;8.20;99.90;;;;;;5047030;28;19942;-46
2023/04/19 00:50:43;;;;;;;;;;;8.20;99.90;;;;;;5038571;28;20365;-45
2023/04/19 00:53:10;;;;;;;;;;;8.20;99.90;;;;;;5053725;28;20007;-44
2023/04/19 00:55:37;;;;;;;;;;;8.10;99.90;;;;;;5053109;28;20004;-41
2023/04/19 00:58:04;;;;;;;;;;;8.10;99.90;;;;;;5050567;28;20047;-43
2023/04/19 01:00:31;;;;;;;;;;;8.10;99.90;;;;;;5052151;28;19935;-47
2023/04/19 01:02:57;;;;;;;;;;;8.10;99.90;;;;;;5051079;28;19935;-43
2023/04/19 01:05:25;;;;;;;;;;;8.00;99.90;;;;;;5066478;28;20330;-42
2023/04/19 01:07:52;;;;;;;;;;;8.00;99.90;;;;;;5058539;28;19963;-42
2023/04/19 01:10:19;;;;;;;;;;;8.00;99.90;;;;;;5065564;28;20024;-43
2023/04/19 01:12:45;;;;;;;;;;;8.00;99.90;;;;;;5058807;28;19931;-43
2023/04/19 01:15:12;;;;;;;;;;;8.00;99.90;;;;;;5051755;28;19933;-42
2023/04/19 01:17:39;;;;;;;;;;;8.00;99.90;;;;;;5013333;28;1072193;-44
2023/04/19 01:20:06;;;;;;;;;;;8.00;99.90;;;;;;5052826;28;19951;-42
2023/04/19 01:22:36;;;;;;;;;;;8.00;99.90;;;;;;5052274;28;20015;-44
2023/04/19 01:25:03;;;;;;;;;;;7.90;99.90;;;;;;5044874;28;19977;-42
2023/04/19 01:27:29;;;;;;;;;;;8.00;99.90;;;;;;5043721;28;19943;-45
2023/04/19 01:29:56;;;;;;;;;;;8.00;99.90;;;;;;5051878;28;20387;-42
2023/04/19 01:32:25;;;;;;;;;;;8.00;99.90;;;;;;5062260;28;19924;-41
2023/04/19 01:34:51;;;;;;;;;;;8.00;99.90;;;;;;5059826;28;19935;-41
2023/04/19 01:37:18;;;;;;;;;;;7.90;99.90;;;;;;5056479;28;19979;-41
2023/04/19 01:39:46;;;;;;;;;;;7.90;99.90;;;;;;5062786;28;20041;-42
2023/04/19 01:42:13;;;;;;;;;;;7.90;99.90;;;;;;5060377;28;19981;-41
2023/04/19 01:44:39;;;;;;;;;;;7.90;99.90;;;;;;5052619;28;19937;-41
2023/04/19 01:47:06;;;;;;;;;;;7.90;99.90;;;;;;5049469;28;20516;-42
2023/04/19 01:49:33;;;;;;;;;;;7.90;99.90;;;;;;5054726;28;20072;-41
2023/04/19 01:51:59;;;;;;;;;;;7.90;99.90;;;;;;5058645;28;20031;-46
2023/04/19 01:54:26;;;;;;;;;;;7.90;99.90;;;;;;5071686;28;19937;-44
2023/04/19 01:56:54;;;;;;;;;;;7.80;99.90;;;;;;5053212;28;19935;-46
2023/04/19 01:59:20;;;;;;;;;;;7.80;99.90;;;;;;5052139;28;19986;-45
2023/04/19 02:01:47;;;;;;;;;;;7.80;99.90;;;;;;5047389;28;20014;-46
2023/04/19 02:04:14;;;;;;;;;;;7.70;99.90;;;;;;5035395;28;19943;-42
2023/04/19 02:06:40;;;;;;;;;;;7.70;99.90;;;;;;5053779;28;20415;-43
2023/04/19 02:09:08;;;;;;;;;;;7.70;99.90;;;;;;5052767;28;19937;-44
2023/04/19 02:11:34;;;;;;;;;;;7.70;99.90;;;;;;5057086;28;19993;-47
2023/04/19 02:14:02;;;;;;;;;;;7.70;99.90;;;;;;5067391;28;20022;-42
2023/04/19 02:16:29;;;;;;;;;;;7.60;99.90;;;;;;5067580;28;20025;-47
2023/04/19 02:18:56;;;;;;;;;;;7.60;99.90;;;;;;5053320;28;20007;-45
2023/04/19 02:21:22;;;;;;;;;;;7.60;99.90;;;;;;5050287;28;20399;-42
2023/04/19 02:23:49;;;;;;;;;;;7.60;99.90;;;;;;5046099;28;20372;-44
2023/04/19 02:26:16;;;;;;;;;;;7.60;99.90;;;;;;5057610;28;19982;-43
2023/04/19 02:28:42;;;;;;;;;;;7.60;99.90;;;;;;5066298;28;19979;-45
2023/04/19 02:31:10;;;;;;;;;;;7.50;99.90;;;;;;5049915;28;19931;-43
2023/04/19 02:33:37;;;;;;;;;;;7.50;99.90;;;;;;5053651;28;20038;-43
2023/04/19 02:36:04;;;;;;;;;;;7.50;99.90;;;;;;5033537;28;19936;-46
2023/04/19 02:38:30;;;;;;;;;;;7.40;99.90;;;;;;5035296;28;20806;-42
2023/04/19 02:40:57;;;;;;;;;;;7.30;99.90;;;;;;5053861;28;19968;-43
2023/04/19 02:43:23;;;;;;;;;;;7.40;99.90;;;;;;5064150;28;19997;-44
2023/04/19 02:45:50;;;;;;;;;;;7.30;99.90;;;;;;5036767;28;20011;-44
2023/04/19 02:48:18;;;;;;;;;;;7.30;99.90;;;;;;5064271;28;19992;-45
2023/04/19 02:50:45;;;;;;;;;;;7.30;99.90;;;;;;5051101;28;19975;-43
2023/04/19 02:53:11;;;;;;;;;;;7.20;99.90;;;;;;5055096;28;19986;-46
2023/04/19 02:55:38;;;;;;;;;;;7.20;99.90;;;;;;5049252;28;19994;-44
2023/04/19 02:58:05;;;;;;;;;;;7.20;99.90;;;;;;5071718;28;19990;-41
2023/04/19 03:00:31;;;;;;;;;;;7.10;99.90;;;;;;5039080;28;20000;-43
2023/04/19 03:02:58;;;;;;;;;;;7.10;99.90;;;;;;5055928;28;20358;-46
2023/04/19 03:05:26;;;;;;;;;;;7.10;99.90;;;;;;5061197;28;20453;-43
2023/04/19 03:07:53;;;;;;;;;;;7.10;99.90;;;;;;5049917;28;20380;-45
2023/04/19 03:10:19;;;;;;;;;;;7.00;99.90;;;;;;5068961;28;19986;-42
2023/04/19 03:12:46;;;;;;;;;;;7.00;99.90;;;;;;5060166;28;19926;-42
2023/04/19 03:15:13;;;;;;;;;;;7.00;99.90;;;;;;5052896;28;19937;-45
2023/04/19 03:17:39;;;;;;;;;;;7.00;99.90;;;;;;5050953;28;19959;-44
2023/04/19 03:20:08;;;;;;;;;;;6.80;99.90;;;;;;5051298;28;19948;-44
2023/04/19 03:22:36;;;;;;;;;;;6.90;99.90;;;;;;5063360;28;19978;-41
2023/04/19 03:25:03;;;;;;;;;;;6.90;99.90;;;;;;5051210;28;19959;-43
2023/04/19 03:27:30;;;;;;;;;;;6.80;99.90;;;;;;5049921;28;19971;-43
2023/04/19 03:29:56;;;;;;;;;;;6.80;99.90;;;;;;5050430;28;20316;-45
2023/04/19 03:32:23;;;;;;;;;;;6.80;99.90;;;;;;5054099;28;19937;-44
2023/04/19 03:34:50;;;;;;;;;;;6.70;99.90;;;;;;5050367;28;20369;-44
2023/04/19 03:37:16;;;;;;;;;;;6.70;99.90;;;;;;5048237;28;20029;-41
2023/04/19 03:39:44;;;;;;;;;;;6.70;99.90;;;;;;5060612;28;19951;-44
2023/04/19 03:42:11;;;;;;;;;;;6.60;99.90;;;;;;5060772;28;19994;-44
2023/04/19 03:44:37;;;;;;;;;;;6.60;99.90;;;;;;5059291;28;20363;-46
2023/04/19 03:47:04;;;;;;;;;;;6.60;99.90;;;;;;5055950;28;20244;-45
2023/04/19 03:49:31;;;;;;;;;;;6.60;99.90;;;;;;5048569;28;19988;-45
2023/04/19 03:51:58;;;;;;;;;;;6.50;99.90;;;;;;5048289;28;19943;-40
2023/04/19 03:54:24;;;;;;;;;;;6.60;99.90;;;;;;5058785;28;20386;-46
2023/04/19 03:56:55;;;;;;;;;;;6.50;99.90;;;;;;5051623;28;20039;-46
2023/04/19 03:59:22;;;;;;;;;;;6.50;99.90;;;;;;5056273;28;20005;-45
2023/04/19 04:01:49;;;;;;;;;;;6.40;99.90;;;;;;5043962;28;20350;-43
2023/04/19 04:04:15;;;;;;;;;;;6.40;99.90;;;;;;5055690;28;19997;-44
2023/04/19 04:06:42;;;;;;;;;;;6.50;99.90;;;;;;5065920;28;19996;-44
2023/04/19 04:09:08;;;;;;;;;;;6.40;99.90;;;;;;5062402;28;20022;-45
2023/04/19 04:11:35;;;;;;;;;;;6.40;99.90;;;;;;5050862;28;20312;-46
2023/04/19 04:14:03;;;;;;;;;;;6.40;99.90;;;;;;5067022;28;20007;-44
2023/04/19 04:16:30;;;;;;;;;;;6.30;99.90;;;;;;5058086;28;19939;-42
2023/04/19 04:18:56;;;;;;;;;;;6.30;99.90;;;;;;5053927;28;20335;-40
2023/04/19 04:21:23;;;;;;;;;;;6.30;99.90;;;;;;5052858;28;20042;-44
2023/04/19 04:23:50;;;;;;;;;;;6.20;99.90;;;;;;5065913;28;20315;-45
2023/04/19 04:26:18;;;;;;;;;;;6.30;99.90;;;;;;5054154;28;20377;-41
2023/04/19 04:28:46;;;;;;;;;;;6.20;99.90;;;;;;5053731;28;19924;-48
2023/04/19 04:31:16;;;;;;;;;;;6.20;99.90;;;;;;5051191;28;20748;-45
2023/04/19 04:33:44;;;;;;;;;;;6.20;99.90;;;;;;5056724;28;19939;-41
2023/04/19 04:36:11;;;;;;;;;;;6.10;99.90;;;;;;5063505;28;19937;-44
2023/04/19 04:38:38;;;;;;;;;;;6.00;99.90;;;;;;5058503;28;19998;-41
2023/04/19 04:41:05;;;;;;;;;;;6.10;99.90;;;;;;5058316;28;20361;-40
2023/04/19 04:43:32;;;;;;;;;;;6.10;99.90;;;;;;5053579;28;20339;-43
2023/04/19 04:45:59;;;;;;;;;;;6.10;99.90;;;;;;5052424;28;19942;-40
2023/04/19 04:48:27;;;;;;;;;;;6.00;99.90;;;;;;5045468;28;20009;-42
2023/04/19 04:50:54;;;;;;;;;;;6.00;99.90;;;;;;5052636;28;19972;-44
2023/04/19 04:53:21;;;;;;;;;;;6.00;99.90;;;;;;5046723;28;19974;-42
2023/04/19 04:55:47;;;;;;;;;;;6.00;99.90;;;;;;5045359;28;19929;-41
2023/04/19 04:58:14;;;;;;;;;;;6.00;99.90;;;;;;5050278;28;19977;-43
2023/04/19 05:00:40;;;;;;;;;;;6.00;99.90;;;;;;5060445;28;20046;-42
2023/04/19 05:03:07;;;;;;;;;;;6.00;99.90;;;;;;5055020;28;20039;-41
2023/04/19 05:05:35;;;;;;;;;;;5.90;99.90;;;;;;5056143;28;19970;-45
2023/04/19 05:08:02;;;;;;;;;;;6.00;99.90;;;;;;5053333;28;20375;-44
2023/04/19 05:10:28;;;;;;;;;;;6.00;99.90;;;;;;5052036;28;19974;-44
2023/04/19 05:12:55;;;;;;;;;;;5.90;99.90;;;;;;5056370;28;19980;-43
2023/04/19 05:15:22;;;;;;;;;;;6.00;99.90;;;;;;5050700;28;19931;-42
2023/04/19 05:17:48;;;;;;;;;;;5.90;99.90;;;;;;5044793;28;19957;-43
2023/04/19 05:20:15;;;;;;;;;;;6.00;99.90;;;;;;5038018;28;20035;-43
2023/04/19 05:22:43;;;;;;;;;;;6.00;99.90;;;;;;5048918;28;19935;-40
2023/04/19 05:25:10;;;;;;;;;;;6.00;99.90;;;;;;5053508;28;19932;-43
2023/04/19 05:27:36;;;;;;;;;;;6.00;99.90;;;;;;5063310;28;20355;-44
2023/04/19 05:30:03;;;;;;;;;;;6.00;99.90;;;;;;5066660;28;20411;-45
2023/04/19 05:32:30;;;;;;;;;;;6.00;99.90;;;;;;5053753;28;19963;-44
2023/04/19 05:34:57;;;;;;;;;;;6.10;99.90;;;;;;5034038;28;20017;-46
2023/04/19 05:37:24;;;;;;;;;;;6.10;99.90;;;;;;5040831;28;20032;-43
2023/04/19 05:39:52;;;;;;;;;;;6.10;99.90;;;;;;5052116;28;20011;-45
2023/04/19 05:42:18;;;;;;;;;;;6.20;99.90;;;;;;5039885;28;20434;-42
2023/04/19 05:44:45;;;;;;;;;;;6.20;99.90;;;;;;5033746;28;19974;-45
2023/04/19 05:47:11;;;;;;;;;;;6.30;99.90;;;;;;5033722;28;19937;-44
2023/04/19 05:49:38;;;;;;;;;;;6.30;99.90;;;;;;5033711;28;19939;-48
2023/04/19 05:52:05;;;;;;;;;;;6.30;99.90;;;;;;5033435;28;19937;-46
2023/04/19 05:54:34;;;;;;;;;;;6.40;99.90;;;;;;5049292;28;19935;-48
2023/04/19 05:57:02;;;;;;;;;;;6.40;99.90;;;;;;5033383;28;20033;-41
2023/04/19 05:59:29;;;;;;;;;;;6.50;99.90;;;;;;5051657;28;19939;-45
2023/04/19 06:01:56;;;;;;;;;;;6.60;99.90;;;;;;5053199;28;19935;-46
2023/04/19 06:04:22;;;;;;;;;;;6.60;99.90;;;;;;5052083;28;19983;-46
2023/04/19 06:06:49;;;;;;;;;;;6.70;99.90;;;;;;5053085;28;20334;-44
2023/04/19 06:09:16;;;;;;;;;;;6.80;99.90;;;;;;5052308;28;19938;-45
2023/04/19 06:11:43;;;;;;;;;;;6.90;99.90;;;;;;5052497;28;19985;-47
2023/04/19 06:14:12;;;;;;;;;;;7.00;99.90;;;;;;5053401;28;20032;-46
2023/04/19 06:16:39;;;;;;;;;;;7.10;99.90;;;;;;5051738;28;19945;-46
2023/04/19 06:19:06;;;;;;;;;;;7.20;99.90;;;;;;5052663;28;19959;-45
2023/04/19 06:21:33;;;;;;;;;;;7.30;99.90;;;;;;5051459;28;20013;-41
2023/04/19 06:23:59;;;;;;;;;;;7.40;99.90;;;;;;5052059;28;20079;-46
2023/04/19 06:26:26;;;;;;;;;;;7.50;99.90;;;;;;5052063;28;19935;-44
2023/04/19 06:28:53;;;;;;;;;;;7.60;99.90;;;;;;5052889;28;19936;-42
2023/04/19 06:31:21;;;;;;;;;;;7.70;99.90;;;;;;5052867;28;19982;-48
2023/04/19 06:33:47;;;;;;;;;;;7.70;99.90;;;;;;5052300;28;19936;-43
2023/04/19 06:36:14;;;;;;;;;;;7.80;99.90;;;;;;5051674;28;20464;-43
2023/04/19 06:38:43;;;;;;;;;;;7.80;99.90;;;;;;5052105;28;20370;-42
2023/04/19 06:41:09;;;;;;;;;;;8.00;99.90;;;;;;5051449;28;19955;-42
2023/04/19 06:43:36;;;;;;;;;;;8.00;99.90;;;;;;5051728;28;19936;-41
2023/04/19 06:46:03;;;;;;;;;;;8.10;99.90;;;;;;5051651;28;19984;-46
2023/04/19 06:48:31;;;;;;;;;;;8.20;99.90;;;;;;5052401;28;20057;-41
2023/04/19 06:50:57;;;;;;;;;;;8.30;99.90;;;;;;5050996;28;19986;-43
2023/04/19 06:53:25;;;;;;;;;;;8.40;99.90;;;;;;5052933;28;19937;-46
2023/04/19 06:55:53;;;;;;;;;;;8.40;99.90;;;;;;5052675;28;19935;-42
2023/04/19 06:58:20;;;;;;;;;;;8.50;99.90;;;;;;5052297;28;20001;-42
2023/04/19 07:00:46;;;;;;;;;;;8.60;99.90;;;;;;5052142;28;19920;-42
2023/04/19 07:03:13;;;;;;;;;;;8.70;99.90;;;;;;5051104;28;20039;-44
2023/04/19 07:05:41;;;;;;;;;;;8.80;99.90;;;;;;5052471;28;19988;-46
2023/04/19 07:08:07;;;;;;;;;;;8.90;99.90;;;;;;5051738;28;19976;-42
2023/04/19 07:10:34;;;;;;;;;;;9.00;99.90;;;;;;5051603;28;19936;-42
2023/04/19 07:13:01;;;;;;;;;;;9.10;99.90;;;;;;5050653;28;20037;-41
2023/04/19 07:15:27;;;;;;;;;;;9.20;99.90;;;;;;5052346;28;19988;-42
2023/04/19 07:17:54;;;;;;;;;;;9.40;99.90;;;;;;5051632;28;20051;-40
2023/04/19 07:20:21;;;;;;;;;;;9.60;99.90;;;;;;5052269;28;20056;-40
2023/04/19 07:22:49;;;;;;;;;;;9.70;99.90;;;;;;5051379;28;20040;-42
2023/04/19 07:25:16;;;;;;;;;;;9.80;99.90;;;;;;5051428;28;20025;-42
2023/04/19 07:27:42;;;;;;;;;;;9.90;99.90;;;;;;5052300;28;20027;-41
2023/04/19 07:30:10;;;;;;;;;;;10.00;99.90;;;;;;5051071;28;20045;-41
2023/04/19 07:32:36;;;;;;;;;;;10.20;99.90;;;;;;5048564;28;20321;-42
2023/04/19 07:35:03;;;;;;;;;;;10.30;98.60;;;;;;5047480;28;20009;-42
2023/04/19 07:37:30;;;;;;;;;;;10.40;97.70;;;;;;5032235;28;19983;-44
2023/04/19 07:39:58;;;;;;;;;;;10.40;97.80;;;;;;5032094;28;19936;-43
2023/04/19 07:42:24;;;;;;;;;;;10.60;98.80;;;;;;5047987;28;20339;-43
2023/04/19 07:44:51;;;;;;;;;;;10.70;96.80;;;;;;5051770;28;19939;-45
2023/04/19 07:47:18;;;;;;;;;;;10.70;96.70;;;;;;5055660;28;19978;-45
2023/04/19 07:49:44;;;;;;;;;;;10.90;97.70;;;;;;5055918;28;20078;-42
2023/04/19 07:52:11;;;;;;;;;;;11.00;97.30;;;;;;5056051;28;19996;-41
2023/04/19 07:54:38;;;;;;;;;;;11.20;96.90;;;;;;5055275;28;20024;-42
2023/04/19 07:57:06;;;;;;;;;;;11.20;94.60;;;;;;5054715;28;20432;-41
2023/04/19 07:59:33;;;;;;;;;;;11.30;95.50;;;;;;5054665;28;19978;-40
2023/04/19 08:01:59;;;;;;;;;;;11.30;94.70;;;;;;5054269;28;19978;-42
2023/04/19 08:04:26;;;;;;;;;;;11.40;92.60;;;;;;5055541;28;19943;-41
2023/04/19 08:06:53;;;;;;;;;;;11.50;93.60;;;;;;5055604;28;19940;-42
2023/04/19 08:09:19;;;;;;;;;;;11.70;95.00;;;;;;5054423;28;19989;-41
2023/04/19 08:11:46;;;;;;;;;;;11.80;92.70;;;;;;5053290;28;19990;-42
2023/04/19 08:14:14;;;;;;;;;;;11.90;92.70;;;;;;5054708;28;19997;-41
2023/04/19 08:16:41;;;;;;;;;;;12.00;92.20;;;;;;5055209;28;20461;-41
2023/04/19 08:19:07;;;;;;;;;;;12.10;92.10;;;;;;5054254;28;20060;-42
2023/04/19 08:21:34;;;;;;;;;;;12.20;90.70;;;;;;5055388;28;19998;-39
2023/04/19 08:24:00;;;;;;;;;;;12.30;86.20;;;;;;5054887;28;19986;-42
2023/04/19 08:26:27;;;;;;;;;;;12.40;84.10;;;;;;5055240;28;19935;-41
2023/04/19 08:28:54;;;;;;;;;;;12.40;79.40;;;;;;5054574;28;19937;-40
2023/04/19 08:31:22;;;;;;;;;;;12.40;81.10;;;;;;5054047;28;19991;-40
2023/04/19 08:33:48;;;;;;;;;;;12.40;79.50;;;;;;5054939;28;19939;-41
2023/04/19 08:36:15;;;;;;;;;;;12.50;81.50;;;;;;5054083;28;19937;-42
2023/04/19 08:38:42;;;;;;;;;;;12.70;83.60;;;;;;5054149;28;19936;-43
2023/04/19 08:41:10;;;;;;;;;;;12.70;81.50;;;;;;5053743;28;19994;-43
2023/04/19 08:43:37;;;;;;;;;;;12.70;78.20;;;;;;5054873;28;19992;-41
2023/04/19 08:46:04;;;;;;;;;;;12.80;80.70;;;;;;5054127;28;20387;-40
2023/04/19 08:48:32;;;;;;;;;;;12.80;78.20;;;;;;5053694;28;19982;-41
2023/04/19 08:50:58;;;;;;;;;;;12.90;79.10;;;;;;5054828;28;19971;-42
2023/04/19 08:53:25;;;;;;;;;;;13.00;80.20;;;;;;5053680;28;20059;-40
2023/04/19 08:55:53;;;;;;;;;;;13.10;76.10;;;;;;5053609;28;19959;-41
2023/04/19 08:58:19;;;;;;;;;;;13.00;74.60;;;;;;5054532;28;19943;-39
2023/04/19 09:00:46;;;;;;;;;;;13.00;78.80;;;;;;5053721;28;20334;-40
2023/04/19 09:03:13;;;;;;;;;;;13.20;77.30;;;;;;5053252;28;19940;-40
2023/04/19 09:05:41;;;;;;;;;;;13.30;74.80;;;;;;5053209;28;19979;-40
2023/04/19 09:08:26;;;;;;;;;;;13.50;76.00;;;;;;5054328;28;19944;-41
2023/04/19 09:10:53;;;;;;;;;;;13.60;73.50;;;;;;5052624;28;19945;-39
2023/04/19 09:13:20;;;;;;;;;;;13.60;71.00;;;;;;5053361;28;19937;-42
2023/04/19 09:15:46;;;;;;;;;;;13.60;71.60;;;;;;5052337;28;20350;-40
2023/04/19 09:18:13;;;;;;;;;;;13.60;69.40;;;;;;5053012;28;20121;-40
2023/04/19 09:20:42;;;;;;;;;;;13.70;72.60;;;;;;5054148;28;20301;-40
2023/04/19 09:23:11;;;;;;;;;;;13.80;68.10;;;;;;5054109;28;19937;-41
2023/04/19 09:25:38;;;;;;;;;;;13.80;70.30;;;;;;5053840;28;19966;-39
2023/04/19 09:28:11;;;;;;;;;;;13.90;68.30;;;;;;5053990;28;20006;-40
2023/04/19 09:30:38;;;;;;;;;;;13.90;68.00;;;;;;5053407;28;19937;-43
2023/04/19 09:33:04;;;;;;;;;;;13.90;67.00;;;;;;5052774;28;19968;-41
2023/04/19 09:35:42;;;;;;;;;;;13.90;65.10;;;;;;5052950;28;19941;-42
2023/04/19 09:38:09;;;;;;;;;;;14.00;65.50;;;;;;5052561;28;19935;-40
2023/04/19 09:40:36;;;;;;;;;;;14.20;65.70;;;;;;5052635;28;20369;-39
2023/04/19 09:43:03;;;;;;;;;;;14.30;62.00;;;;;;5053608;28;20088;-39
2023/04/19 09:45:39;;;;;;;;;;;14.40;59.80;;;;;;5053267;28;20398;-41
2023/04/19 09:48:06;;;;;;;;;;;14.40;58.90;;;;;;5053807;28;19927;-40
2023/04/19 09:50:33;;;;;;;;;;;14.50;62.00;;;;;;5053676;28;20033;-40
2023/04/19 09:53:01;;;;;;;;;;;14.60;61.90;;;;;;5052204;28;20030;-42
2023/04/19 09:55:28;;;;;;;;;;;14.70;61.50;;;;;;5053265;28;20381;-40
2023/04/19 09:57:54;;;;;;;;;;;14.80;60.50;;;;;;5053629;28;19980;-40
2023/04/19 10:00:22;;;;;;;;;;;14.90;61.30;;;;;;5052149;28;20055;-40
2023/04/19 10:02:53;;;;;;;;;;;15.00;62.80;;;;;;5052243;28;19957;-42
2023/04/19 10:05:20;;;;;;;;;;;15.20;61.10;;;;;;5053300;28;19936;-40
2023/04/19 10:07:46;;;;;;;;;;;15.20;60.00;;;;;;5052747;28;20440;-39
2023/04/19 10:10:14;;;;;;;;;;;15.20;61.20;;;;;;5052021;28;19965;-40
2023/04/19 10:12:41;;;;;;;;;;;15.30;62.30;;;;;;5052334;28;19937;-41
2023/04/19 10:15:09;;;;;;;;;;;15.40;60.30;;;;;;5053348;28;20301;-40
2023/04/19 10:17:35;;;;;;;;;;;15.40;61.90;;;;;;5039474;28;19956;-40
2023/04/19 10:20:05;;;;;;;;;;;15.60;63.10;;;;;;5033077;28;19939;-39
2023/04/19 10:22:32;;;;;;;;;;;15.70;61.00;;;;;;5032908;28;19963;-41
2023/04/19 10:25:08;;;;;;;;;;;15.80;61.80;;;;;;5045880;28;20284;-41
2023/04/19 10:27:36;;;;;;;;;;;15.90;56.90;;;;;;5053086;28;19937;-40
2023/04/19 10:30:06;;;;;;;;;;;15.90;56.40;;;;;;5052768;28;19935;-39
2023/04/19 10:32:37;;;;;;;;;;;15.80;56.00;;;;;;5052682;28;19940;-41
2023/04/19 10:35:07;;;;;;;;;;;15.80;55.30;;;;;;5051714;28;20275;-41
2023/04/19 10:37:33;;;;;;;;;;;15.80;53.80;;;;;;5052585;28;19984;-39
2023/04/19 10:40:00;;;;;;;;;;;15.80;55.60;;;;;;5051465;28;19980;-41
2023/04/19 10:42:34;;;;;;;;;;;15.80;56.60;;;;;;5052608;28;19967;-39
2023/04/19 10:45:20;;;;;;;;;;;16.00;56.20;;;;;;5051702;28;19959;-39
2023/04/19 10:47:48;;;;;;;;;;;16.10;56.20;;;;;;5051029;28;19997;-41
2023/04/19 10:50:16;;;;;;;;;;;16.20;56.70;;;;;;5052589;28;19935;-39
2023/04/19 10:52:43;;;;;;;;;;;16.30;54.40;;;;;;5052672;28;20003;-40
2023/04/19 10:55:11;;;;;;;;;;;16.20;54.60;;;;;;5052477;28;19979;-39
2023/04/19 10:57:52;;;;;;;;;;;16.10;54.30;;;;;;5051445;28;20021;-39
2023/04/19 11:00:20;;;;;;;;;;;16.20;54.60;;;;;;5050534;28;19988;-39
2023/04/19 11:02:48;;;;;;;;;;;16.10;54.40;;;;;;5049683;28;19956;-40
2023/04/19 11:05:14;;;;;;;;;;;16.10;55.00;;;;;;5032555;28;19947;-39
2023/04/19 11:07:41;;;;;;;;;;;16.10;53.60;;;;;;5048024;28;19983;-39
2023/04/19 11:10:08;;;;;;;;;;;16.20;54.40;;;;;;5032208;28;20385;-40
2023/04/19 11:12:35;;;;;;;;;;;16.20;51.90;;;;;;5056526;28;19938;-40
2023/04/19 11:15:02;;;;;;;;;;;16.10;52.40;;;;;;5048377;28;19931;-39
2023/04/19 11:17:30;;;;;;;;;;;16.10;53.60;;;;;;5058735;28;20039;-39
2023/04/19 11:19:58;;;;;;;;;;;16.40;53.70;;;;;;5054653;28;20389;-39
2023/04/19 11:22:26;;;;;;;;;;;16.50;52.90;;;;;;5057313;28;20496;-40
2023/04/19 11:24:53;;;;;;;;;;;16.50;52.70;;;;;;5062830;28;19968;-40
2023/04/19 11:27:19;;;;;;;;;;;16.40;51.90;;;;;;5054591;28;19981;-40
2023/04/19 11:29:46;;;;;;;;;;;16.40;53.00;;;;;;5053823;28;19936;-40
2023/04/19 11:32:13;;;;;;;;;;;16.30;52.10;;;;;;5053793;28;19984;-42
2023/04/19 11:34:40;;;;;;;;;;;16.30;50.70;;;;;;5067856;28;20363;-39
2023/04/19 11:37:08;;;;;;;;;;;16.10;50.60;;;;;;5076234;28;19976;-41
2023/04/19 11:39:34;;;;;;;;;;;16.10;51.90;;;;;;5058711;28;19964;-41
2023/04/19 11:42:04;;;;;;;;;;;16.20;52.00;;;;;;5054746;28;20459;-40
2023/04/19 11:44:32;;;;;;;;;;;16.30;52.90;;;;;;5070178;28;19985;-39
2023/04/19 11:47:00;;;;;;;;;;;16.40;53.20;;;;;;5065950;28;19973;-41
2023/04/19 11:49:27;;;;;;;;;;;16.60;51.60;;;;;;5061082;28;19976;-40
2023/04/19 11:51:55;;;;;;;;;;;16.70;52.20;;;;;;5075153;28;19981;-40
2023/04/19 11:54:24;;;;;;;;;;;16.60;50.10;;;;;;5075011;28;19947;-39
2023/04/19 11:57:02;;;;;;;;;;;16.50;52.20;;;;;;5056610;28;19941;-39
2023/04/19 11:59:29;;;;;;;;;;;16.50;52.30;;;;;;5054509;28;20247;-39
2023/04/19 12:01:56;;;;;;;;;;;16.50;52.70;;;;;;5055808;28;19968;-39
2023/04/19 12:04:22;;;;;;;;;;;16.50;52.60;;;;;;5055790;28;19925;-39
2023/04/19 12:06:56;;;;;;;;;;;16.50;53.30;;;;;;5054561;28;20353;-39
2023/04/19 12:09:22;;;;;;;;;;;16.70;54.70;;;;;;5055498;28;20347;-39
2023/04/19 12:11:50;;;;;;;;;;;16.90;54.40;;;;;;5055309;28;19986;-39
2023/04/19 12:14:18;;;;;;;;;;;17.00;56.40;;;;;;5054115;28;19927;-38
2023/04/19 12:16:45;;;;;;;;;;;17.00;52.70;;;;;;5055321;28;20351;-39
2023/04/19 12:19:12;;;;;;;;;;;17.00;54.80;;;;;;5052489;28;20020;-39
2023/04/19 12:21:39;;;;;;;;;;;17.20;56.10;;;;;;5073012;28;19935;-39
2023/04/19 12:24:06;;;;;;;;;;;17.40;53.80;;;;;;5057068;28;20356;-39
2023/04/19 12:26:33;;;;;;;;;;;17.40;54.60;;;;;;5055120;28;19932;-38
2023/04/19 12:29:01;;;;;;;;;;;17.40;55.80;;;;;;5053843;28;20019;-39
2023/04/19 12:31:28;;;;;;;;;;;17.30;54.60;;;;;;5053156;28;20385;-39
2023/04/19 12:33:54;;;;;;;;;;;17.20;54.60;;;;;;5056731;28;20264;-39
2023/04/19 12:36:21;;;;;;;;;;;17.10;56.20;;;;;;5069078;28;19998;-40
2023/04/19 12:38:48;;;;;;;;;;;17.20;55.60;;;;;;5053361;28;19986;-38
2023/04/19 12:41:14;;;;;;;;;;;17.20;55.60;;;;;;5058503;28;19978;-38
2023/04/19 12:43:41;;;;;;;;;;;17.20;55.50;;;;;;5071858;28;20314;-38
2023/04/19 12:46:09;;;;;;;;;;;17.10;53.20;;;;;;5073725;28;19970;-39
2023/04/19 12:48:35;;;;;;;;;;;17.20;53.90;;;;;;5074697;28;20370;-39
2023/04/19 12:51:02;;;;;;;;;;;17.10;55.10;;;;;;5069715;28;19983;-39
2023/04/19 12:53:29;;;;;;;;;;;17.20;56.80;;;;;;5070557;28;20315;-39
2023/04/19 12:55:56;;;;;;;;;;;17.30;55.10;;;;;;5061112;28;19933;-39
2023/04/19 12:58:23;;;;;;;;;;;17.30;56.10;;;;;;5062242;28;20037;-39
2023/04/19 13:00:50;;;;;;;;;;;17.40;56.40;;;;;;5052179;28;19943;-39
2023/04/19 13:03:18;;;;;;;;;;;17.30;55.10;;;;;;5053605;28;20029;-39
2023/04/19 13:05:45;;;;;;;;;;;17.20;56.10;;;;;;5069825;28;20352;-39
2023/04/19 13:08:11;;;;;;;;;;;17.20;56.60;;;;;;5070347;28;20377;-39
2023/04/19 13:10:38;;;;;;;;;;;17.20;55.90;;;;;;5073131;28;20027;-39
2023/04/19 13:13:05;;;;;;;;;;;17.30;56.00;;;;;;5062803;28;19984;-39
2023/04/19 13:15:31;;;;;;;;;;;17.40;54.00;;;;;;5056832;28;19924;-40
2023/04/19 13:17:58;;;;;;;;;;;17.40;54.50;;;;;;5061924;28;20021;-38
2023/04/19 13:20:26;;;;;;;;;;;17.30;55.30;;;;;;5055358;28;19963;-38
2023/04/19 13:22:53;;;;;;;;;;;17.20;57.00;;;;;;5053691;28;20060;-39
2023/04/19 13:25:19;;;;;;;;;;;17.20;57.30;;;;;;5053829;28;20341;-39
2023/04/19 13:27:46;;;;;;;;;;;17.20;55.50;;;;;;5053915;28;20030;-40
2023/04/19 13:30:13;;;;;;;;;;;17.10;55.60;;;;;;5053922;28;19945;-39
2023/04/19 13:32:40;;;;;;;;;;;17.20;56.10;;;;;;5053039;28;19937;-38
2023/04/19 13:35:07;;;;;;;;;;;17.10;54.70;;;;;;5053548;28;19974;-40
2023/04/19 13:37:35;;;;;;;;;;;16.90;55.90;;;;;;5053737;28;19965;-39
2023/04/19 13:40:02;;;;;;;;;;;17.00;57.60;;;;;;5052296;28;20431;-39
2023/04/19 13:42:29;;;;;;;;;;;17.20;56.40;;;;;;5051701;28;20395;-38
2023/04/19 13:44:55;;;;;;;;;;;17.30;56.70;;;;;;5053145;28;19989;-38
2023/04/19 13:47:22;;;;;;;;;;;17.30;57.90;;;;;;5052782;28;19939;-38
2023/04/19 13:49:51;;;;;;;;;;;17.50;56.90;;;;;;5053501;28;20009;-39
2023/04/19 13:52:17;;;;;;;;;;;17.50;57.80;;;;;;5052501;28;19977;-39
2023/04/19 13:54:45;;;;;;;;;;;17.50;56.00;;;;;;5053381;28;19940;-39
2023/04/19 13:57:12;;;;;;;;;;;17.30;56.00;;;;;;5052280;28;19987;-38
2023/04/19 13:59:39;;;;;;;;;;;17.30;57.00;;;;;;5053272;28;20386;-39
2023/04/19 14:02:05;;;;;;;;;;;17.40;57.00;;;;;;5053002;28;20388;-39
2023/04/19 14:04:32;;;;;;;;;;;17.40;56.60;;;;;;5052165;28;19925;-38
2023/04/19 14:06:58;;;;;;;;;;;17.50;58.00;;;;;;5048471;28;20361;-39
2023/04/19 14:09:25;;;;;;;;;;;17.60;58.40;;;;;;5048617;28;20006;-39
2023/04/19 14:11:53;;;;;;;;;;;17.70;54.10;;;;;;5048612;28;19942;-39
2023/04/19 14:14:20;;;;;;;;;;;17.70;55.10;;;;;;5057546;28;20394;-39
2023/04/19 14:16:46;;;;;;;;;;;17.70;57.00;;;;;;5050619;28;20373;-39
2023/04/19 14:19:13;;;;;;;;;;;17.60;54.90;;;;;;5050076;28;19987;-39
2023/04/19 14:21:40;;;;;;;;;;;17.50;55.50;;;;;;5057140;28;19939;-39
2023/04/19 14:24:07;;;;;;;;;;;17.40;55.20;;;;;;5038972;28;19951;-40